createdAt,value
2023-03-12T00:01:33.581Z,80.62
2023-03-12T00:06:37.297Z,82.51
2023-03-12T00:11:40.624Z,82.60
2023-03-12T00:16:43.902Z,82.31
2023-03-12T00:21:47.199Z,81.97
2023-03-12T00:26:51.039Z,81.21
2023-03-12T00:31:55.978Z,81.15
2023-03-12T00:37:00.463Z,81.00
2023-03-12T00:42:04.505Z,80.41
2023-03-12T00:47:08.154Z,80.27
2023-03-12T00:52:12.395Z,80.69
2023-03-12T00:57:15.696Z,80.34
2023-03-12T01:02:19.545Z,80.27
2023-03-12T01:07:22.948Z,80.16
2023-03-12T01:12:26.653Z,80.45
2023-03-12T01:17:30.223Z,80.95
2023-03-12T01:22:33.587Z,81.30
2023-03-12T01:27:37.313Z,81.68
2023-03-12T01:32:40.856Z,81.16
2023-03-12T01:37:44.262Z,81.29
2023-03-12T01:42:56.088Z,81.45
2023-03-12T01:47:59.566Z,81.21
2023-03-12T01:53:03.333Z,81.42
2023-03-12T01:58:07.508Z,81.29
2023-03-12T02:03:11.554Z,81.55
2023-03-12T02:08:19.687Z,81.27
2023-03-12T02:13:23.033Z,81.51
2023-03-12T02:18:26.927Z,81.57
2023-03-12T02:23:52.120Z,81.20
2023-03-12T02:28:56.848Z,81.16
2023-03-12T02:34:00.810Z,81.32
2023-03-12T02:39:04.442Z,81.86
2023-03-12T02:44:15.615Z,82.00
2023-03-12T02:49:21.282Z,82.24
2023-03-12T02:54:24.951Z,82.36
2023-03-12T02:59:28.542Z,81.97
2023-03-12T03:04:35.232Z,82.11
2023-03-12T03:09:39.062Z,82.28
2023-03-12T03:14:42.333Z,81.75
2023-03-12T03:19:45.944Z,80.63
2023-03-12T03:24:49.567Z,80.12
2023-03-12T03:29:52.971Z,79.63
2023-03-12T03:34:56.901Z,79.36
2023-03-12T03:40:01.010Z,78.49
2023-03-12T03:45:06.093Z,78.49
2023-03-12T03:50:10.408Z,79.28
2023-03-12T03:55:14.882Z,79.96
2023-03-12T04:00:18.855Z,80.15
2023-03-12T04:05:23.033Z,80.07
2023-03-12T04:10:27.043Z,80.05
2023-03-12T04:15:30.656Z,79.30
2023-03-12T04:20:34.441Z,78.77
2023-03-12T04:25:39.168Z,77.73
2023-03-12T04:30:42.939Z,77.13
2023-03-12T04:35:53.147Z,77.24
2023-03-12T04:41:04.921Z,77.10
2023-03-12T04:46:10.162Z,76.90
2023-03-12T04:51:14.818Z,76.23
2023-03-12T04:56:20.442Z,76.41
2023-03-12T05:01:32.629Z,76.89
2023-03-12T05:06:38.390Z,76.70
2023-03-12T05:11:41.706Z,76.24
2023-03-12T05:16:47.159Z,76.40
2023-03-12T05:21:50.631Z,76.05
2023-03-12T05:26:54.193Z,75.78
2023-03-12T05:31:59.896Z,75.38
2023-03-12T05:37:03.786Z,74.21
2023-03-12T05:42:08.755Z,72.96
2023-03-12T05:47:13.113Z,72.97
2023-03-12T05:52:17.465Z,72.33
2023-03-12T05:57:20.928Z,72.34
2023-03-12T06:02:24.877Z,70.88
2023-03-12T06:07:28.343Z,70.42
2023-03-12T06:12:31.882Z,69.59
2023-03-12T06:17:35.304Z,68.62
2023-03-12T06:22:39.045Z,67.66
2023-03-12T06:27:42.753Z,66.82
2023-03-12T06:32:46.171Z,64.28
2023-03-12T06:37:50.171Z,61.90
2023-03-12T06:42:53.471Z,60.28
2023-03-12T06:47:57.301Z,57.95
2023-03-12T06:53:00.730Z,56.85
2023-03-12T06:58:04.385Z,56.74
2023-03-12T07:03:07.812Z,59.23
2023-03-12T07:08:11.196Z,60.66
2023-03-12T07:13:15.322Z,61.64
2023-03-12T07:18:18.906Z,62.39
2023-03-12T07:23:22.680Z,61.43
2023-03-12T07:28:28.271Z,60.81
2023-03-12T07:33:32.670Z,60.01
2023-03-12T07:38:36.216Z,57.75
2023-03-12T07:43:39.920Z,56.18
2023-03-12T07:48:44.523Z,55.28
2023-03-12T07:53:48.435Z,51.78
2023-03-12T07:58:52.696Z,51.52
2023-03-12T08:03:56.518Z,52.16
2023-03-12T08:09:00.706Z,51.35
2023-03-12T08:14:06.981Z,49.77
2023-03-12T08:19:10.856Z,50.73
2023-03-12T08:24:14.356Z,50.50
2023-03-12T08:29:18.642Z,50.87
2023-03-12T08:34:22.836Z,48.34
2023-03-12T08:39:27.475Z,46.85
2023-03-12T08:48:08.384Z,47.32
2023-03-12T08:53:12.238Z,45.51
2023-03-12T08:58:15.598Z,46.72
2023-03-12T09:03:22.418Z,47.91
2023-03-12T09:08:25.942Z,47.34
2023-03-12T09:13:40.654Z,46.89
2023-03-12T09:18:49.918Z,45.46
2023-03-12T09:23:53.588Z,46.47
2023-03-12T09:28:59.003Z,46.62
2023-03-12T09:34:05.004Z,47.75
2023-03-12T09:39:08.574Z,48.11
2023-03-12T09:44:33.628Z,47.93
2023-03-12T09:49:42.463Z,49.08
2023-03-12T09:54:55.944Z,49.38
2023-03-12T09:59:59.769Z,49.65
2023-03-12T10:05:07.722Z,49.79
2023-03-12T10:10:21.892Z,49.10
2023-03-12T10:15:47.282Z,50.71
2023-03-12T10:21:20.161Z,50.62
2023-03-12T10:26:25.893Z,50.97
2023-03-12T10:31:49.889Z,51.50
2023-03-12T10:36:55.273Z,51.37
2023-03-12T10:42:02.492Z,51.13
2023-03-12T10:47:20.403Z,50.92
2023-03-12T10:52:24.356Z,51.16
2023-03-12T10:57:39.944Z,51.42
2023-03-12T11:02:48.493Z,51.49
2023-03-12T11:07:52.402Z,51.01
2023-03-12T11:13:22.158Z,50.49
2023-03-12T11:18:34.581Z,50.93
2023-03-12T11:23:59.694Z,50.30
2023-03-12T11:29:13.387Z,50.41
2023-03-12T11:34:28.049Z,50.72
2023-03-12T11:40:10.180Z,50.46
2023-03-12T11:45:25.684Z,51.15
2023-03-12T11:51:04.357Z,49.96
2023-03-12T11:56:16.739Z,50.02
2023-03-12T12:01:39.702Z,50.52
2023-03-12T12:06:45.290Z,50.34
2023-03-12T12:12:09.021Z,49.26
2023-03-12T12:17:45.302Z,50.33
2023-03-12T12:23:17.869Z,49.85
2023-03-12T12:28:59.036Z,50.41
2023-03-12T12:34:18.583Z,50.98
2023-03-12T12:39:43.536Z,51.22
2023-03-12T12:44:50.211Z,49.66
2023-03-12T12:49:59.735Z,49.04
2023-03-12T12:55:35.499Z,49.02
2023-03-12T13:01:00.678Z,50.04
2023-03-12T13:06:06.747Z,50.11
2023-03-12T13:19:18.334Z,49.36
2023-03-12T13:25:15.524Z,49.54
2023-03-12T13:30:34.130Z,49.25
2023-03-12T13:35:39.898Z,48.59
2023-03-12T13:41:01.012Z,48.14
2023-03-12T13:46:23.905Z,47.80
2023-03-12T13:51:27.630Z,47.48
2023-03-12T13:56:33.329Z,47.19
2023-03-12T14:01:41.514Z,47.05
2023-03-12T14:06:58.593Z,47.13
2023-03-12T14:12:24.085Z,46.03
2023-03-12T14:17:29.721Z,46.40
2023-03-12T14:22:35.917Z,45.79
2023-03-12T14:27:39.456Z,45.34
2023-03-12T14:32:44.243Z,46.00
2023-03-12T14:37:55.901Z,45.83
2023-03-12T14:43:02.918Z,46.39
2023-03-12T14:48:07.411Z,45.31
2023-03-12T14:53:28.644Z,44.90
2023-03-12T14:58:32.952Z,45.93
2023-03-12T15:03:44.630Z,45.81
2023-03-12T15:08:49.183Z,46.00
2023-03-12T15:13:54.049Z,45.66
2023-03-12T15:18:57.736Z,46.15
2023-03-12T15:24:01.488Z,46.73
2023-03-12T15:29:28.927Z,46.90
2023-03-12T15:34:37.885Z,47.01
2023-03-12T15:39:41.839Z,47.98
2023-03-12T15:44:54.990Z,47.83
2023-03-12T15:50:04.276Z,47.37
2023-03-12T15:55:26.965Z,47.58
2023-03-12T16:00:42.842Z,48.37
2023-03-12T16:05:47.035Z,48.24
2023-03-12T16:10:50.737Z,48.53
2023-03-12T16:15:55.217Z,47.93
2023-03-12T16:20:59.046Z,47.97
2023-03-12T16:26:03.882Z,47.77
2023-03-12T16:31:15.053Z,48.23
2023-03-12T16:36:19.434Z,48.23
2023-03-12T16:41:22.757Z,48.83
2023-03-12T16:46:30.840Z,48.53
2023-03-12T16:51:34.326Z,48.89
2023-03-12T16:56:38.258Z,49.56
2023-03-12T17:01:41.584Z,50.55
2023-03-12T17:06:44.926Z,52.73
2023-03-12T17:11:50.732Z,53.51
2023-03-12T17:16:55.267Z,52.60
2023-03-12T17:21:59.527Z,51.20
2023-03-12T17:27:02.993Z,51.15
2023-03-12T17:32:06.555Z,50.28
2023-03-12T17:37:10.144Z,49.20
2023-03-12T17:42:13.503Z,49.21
2023-03-12T17:47:17.003Z,50.61
2023-03-12T17:52:21.055Z,51.15
2023-03-12T17:57:25.366Z,51.86
2023-03-12T18:02:29.044Z,52.80
2023-03-12T18:07:32.559Z,53.93
2023-03-12T18:12:38.202Z,54.69
2023-03-12T18:17:42.464Z,54.29
2023-03-12T18:22:46.158Z,53.82
2023-03-12T18:27:50.289Z,54.33
2023-03-12T18:32:53.895Z,54.01
2023-03-12T18:37:57.676Z,53.49
2023-03-12T18:43:01.475Z,54.07
2023-03-12T18:48:05.213Z,54.37
2023-03-12T18:53:09.140Z,55.08
2023-03-12T18:58:12.736Z,53.84
2023-03-12T19:03:16.090Z,53.45
2023-03-12T19:08:20.973Z,53.89
2023-03-12T19:13:25.254Z,54.43
2023-03-12T19:18:29.348Z,54.28
2023-03-12T19:23:34.138Z,53.29
2023-03-12T19:28:39.401Z,52.67
2023-03-12T19:33:44.185Z,51.11
2023-03-12T19:38:47.757Z,51.03
2023-03-12T19:43:51.633Z,51.34
2023-03-12T19:48:55.196Z,52.37
2023-03-12T19:53:59.365Z,53.97
2023-03-12T19:59:04.411Z,53.99
2023-03-12T20:04:09.027Z,52.16
2023-03-12T20:09:13.413Z,51.90
2023-03-12T20:14:17.346Z,51.29
2023-03-12T20:19:20.778Z,51.93
2023-03-12T20:24:24.230Z,52.82
2023-03-12T20:29:27.830Z,53.39
2023-03-12T20:34:31.980Z,53.11
2023-03-12T20:39:35.841Z,53.39
2023-03-12T20:44:39.287Z,53.63
2023-03-12T20:49:42.748Z,52.31
2023-03-12T20:54:46.795Z,51.67
2023-03-12T20:59:50.291Z,51.37
2023-03-12T21:04:54.293Z,51.24
2023-03-12T21:09:58.089Z,50.66
2023-03-12T21:15:06.541Z,50.14
2023-03-12T21:20:13.686Z,49.77
2023-03-12T21:25:17.696Z,49.69
2023-03-12T21:30:21.058Z,49.72
2023-03-12T21:35:26.835Z,49.69
2023-03-12T21:40:30.211Z,49.27
2023-03-12T21:45:34.445Z,49.61
2023-03-12T21:50:37.773Z,49.49
2023-03-12T21:55:41.180Z,49.48
2023-03-12T22:00:44.674Z,49.42
2023-03-12T22:05:52.303Z,49.05
2023-03-12T22:10:55.818Z,48.85
2023-03-12T22:16:07.015Z,48.83
2023-03-12T22:21:16.337Z,49.19
2023-03-12T22:26:26.731Z,48.61
2023-03-12T22:31:30.310Z,48.65
2023-03-12T22:36:35.024Z,48.49
